sensor_id;sensor_type;location;lat;lon;timestamp;pressure;altitude;pressure_sealevel;temperature;humidity
28683;BME280;15862;43.062;25.626;2022-12-17T00:02:26;100090.13;;;4.78;100.00
28683;BME280;15862;43.062;25.626;2022-12-17T00:05:09;100099.16;;;4.85;100.00
28683;BME280;15862;43.062;25.626;2022-12-17T00:07:58;100099.38;;;4.80;100.00
28683;BME280;15862;43.062;25.626;2022-12-17T00:10:42;100099.72;;;4.73;100.00
28683;BME280;15862;43.062;25.626;2022-12-17T00:13:26;100096.72;;;4.82;100.00
28683;BME280;15862;43.062;25.626;2022-12-17T00:16:10;100082.44;;;4.78;100.00
28683;BME280;15862;43.062;25.626;2022-12-17T00:18:59;100105.03;;;4.87;100.00
28683;BME280;15862;43.062;25.626;2022-12-17T00:21:42;100095.09;;;4.98;100.00
28683;BME280;15862;43.062;25.626;2022-12-17T00:24:26;100092.28;;;4.85;100.00
28683;BME280;15862;43.062;25.626;2022-12-17T00:27:10;100069.94;;;4.89;100.00
28683;BME280;15862;43.062;25.626;2022-12-17T00:29:54;100076.81;;;5.05;100.00
28683;BME280;15862;43.062;25.626;2022-12-17T00:32:38;100063.13;;;5.06;100.00
28683;BME280;15862;43.062;25.626;2022-12-17T00:35:22;100074.66;;;5.15;100.00
28683;BME280;15862;43.062;25.626;2022-12-17T00:38:23;100076.22;;;5.17;100.00
28683;BME280;15862;43.062;25.626;2022-12-17T00:41:15;100066.13;;;5.14;100.00
28683;BME280;15862;43.062;25.626;2022-12-17T00:43:59;100071.13;;;5.17;100.00
28683;BME280;15862;43.062;25.626;2022-12-17T00:46:42;100076.81;;;5.22;100.00
28683;BME280;15862;43.062;25.626;2022-12-17T00:49:27;100066.97;;;5.15;100.00
28683;BME280;15862;43.062;25.626;2022-12-17T00:52:11;100053.88;;;5.21;100.00
28683;BME280;15862;43.062;25.626;2022-12-17T00:54:54;100035.84;;;5.39;100.00
28683;BME280;15862;43.062;25.626;2022-12-17T00:57:39;100023.19;;;5.36;100.00
28683;BME280;15862;43.062;25.626;2022-12-17T01:00:22;100026.19;;;5.27;100.00
28683;BME280;15862;43.062;25.626;2022-12-17T01:03:09;100025.38;;;5.27;100.00
28683;BME280;15862;43.062;25.626;2022-12-17T01:05:54;100016.81;;;5.28;100.00
28683;BME280;15862;43.062;25.626;2022-12-17T01:08:38;100016.63;;;5.30;100.00
28683;BME280;15862;43.062;25.626;2022-12-17T01:11:22;100013.63;;;5.39;100.00
28683;BME280;15862;43.062;25.626;2022-12-17T01:14:07;99987.28;;;5.37;100.00
28683;BME280;15862;43.062;25.626;2022-12-17T01:16:51;100001.59;;;5.57;100.00
28683;BME280;15862;43.062;25.626;2022-12-17T01:19:34;99997.09;;;5.62;100.00
28683;BME280;15862;43.062;25.626;2022-12-17T01:22:18;99992.09;;;5.59;100.00
28683;BME280;15862;43.062;25.626;2022-12-17T01:25:02;99979.38;;;5.57;100.00
28683;BME280;15862;43.062;25.626;2022-12-17T01:27:48;99964.41;;;5.50;100.00
28683;BME280;15862;43.062;25.626;2022-12-17T01:30:35;99968.81;;;5.48;100.00
28683;BME280;15862;43.062;25.626;2022-12-17T01:33:19;99977.88;;;5.53;100.00
28683;BME280;15862;43.062;25.626;2022-12-17T01:36:03;99976.75;;;5.59;100.00
28683;BME280;15862;43.062;25.626;2022-12-17T01:38:47;99962.34;;;5.56;100.00
28683;BME280;15862;43.062;25.626;2022-12-17T01:41:31;99953.28;;;5.66;100.00
28683;BME280;15862;43.062;25.626;2022-12-17T01:47:18;99945.31;;;5.55;100.00
28683;BME280;15862;43.062;25.626;2022-12-17T01:50:02;99940.06;;;5.58;100.00
28683;BME280;15862;43.062;25.626;2022-12-17T01:52:46;99941.28;;;5.67;100.00
28683;BME280;15862;43.062;25.626;2022-12-17T01:55:31;99947.56;;;5.61;100.00
28683;BME280;15862;43.062;25.626;2022-12-17T01:58:15;99954.91;;;5.67;100.00
28683;BME280;15862;43.062;25.626;2022-12-17T02:00:59;99952.44;;;5.66;100.00
28683;BME280;15862;43.062;25.626;2022-12-17T02:03:43;99944.66;;;5.67;100.00
28683;BME280;15862;43.062;25.626;2022-12-17T02:06:30;99949.13;;;5.64;100.00
28683;BME280;15862;43.062;25.626;2022-12-17T02:09:32;99945.78;;;5.79;100.00
28683;BME280;15862;43.062;25.626;2022-12-17T02:12:41;99950.22;;;5.75;100.00
28683;BME280;15862;43.062;25.626;2022-12-17T02:15:35;99945.72;;;5.80;100.00
28683;BME280;15862;43.062;25.626;2022-12-17T02:18:26;99946.53;;;5.81;100.00
28683;BME280;15862;43.062;25.626;2022-12-17T02:21:13;99937.19;;;5.80;100.00
28683;BME280;15862;43.062;25.626;2022-12-17T02:27:02;99930.19;;;5.35;100.00
28683;BME280;15862;43.062;25.626;2022-12-17T02:29:55;99928.75;;;5.30;100.00
28683;BME280;15862;43.062;25.626;2022-12-17T02:32:42;99927.22;;;5.11;100.00
28683;BME280;15862;43.062;25.626;2022-12-17T02:35:38;99930.84;;;5.07;100.00
28683;BME280;15862;43.062;25.626;2022-12-17T02:38:26;99934.19;;;4.92;100.00
28683;BME280;15862;43.062;25.626;2022-12-17T02:41:50;99941.69;;;4.95;100.00
28683;BME280;15862;43.062;25.626;2022-12-17T02:44:27;99945.78;;;4.99;100.00
28683;BME280;15862;43.062;25.626;2022-12-17T02:47:12;99952.22;;;5.06;100.00
28683;BME280;15862;43.062;25.626;2022-12-17T02:49:57;99951.16;;;5.10;100.00
28683;BME280;15862;43.062;25.626;2022-12-17T02:52:43;99947.78;;;5.09;100.00
28683;BME280;15862;43.062;25.626;2022-12-17T02:55:28;99953.00;;;5.08;100.00
28683;BME280;15862;43.062;25.626;2022-12-17T02:58:11;99944.09;;;5.15;100.00
28683;BME280;15862;43.062;25.626;2022-12-17T03:00:55;99943.78;;;5.21;100.00
28683;BME280;15862;43.062;25.626;2022-12-17T03:03:40;99930.22;;;5.19;100.00
28683;BME280;15862;43.062;25.626;2022-12-17T03:06:23;99930.84;;;5.07;100.00
28683;BME280;15862;43.062;25.626;2022-12-17T03:09:07;99936.44;;;4.98;100.00
28683;BME280;15862;43.062;25.626;2022-12-17T03:11:52;99926.34;;;4.95;100.00
28683;BME280;15862;43.062;25.626;2022-12-17T03:14:36;99924.84;;;4.91;100.00
28683;BME280;15862;43.062;25.626;2022-12-17T03:17:19;99910.41;;;4.90;100.00
28683;BME280;15862;43.062;25.626;2022-12-17T03:20:04;99908.78;;;4.72;100.00
28683;BME280;15862;43.062;25.626;2022-12-17T03:22:48;99912.47;;;4.66;100.00
28683;BME280;15862;43.062;25.626;2022-12-17T03:25:32;99913.94;;;4.70;100.00
28683;BME280;15862;43.062;25.626;2022-12-17T03:28:16;99915.25;;;4.79;100.00
28683;BME280;15862;43.062;25.626;2022-12-17T03:31:00;99885.13;;;4.67;100.00
28683;BME280;15862;43.062;25.626;2022-12-17T03:33:45;99904.59;;;4.86;100.00
28683;BME280;15862;43.062;25.626;2022-12-17T03:36:29;99909.84;;;5.00;100.00
28683;BME280;15862;43.062;25.626;2022-12-17T03:39:13;99897.63;;;5.05;100.00
28683;BME280;15862;43.062;25.626;2022-12-17T03:41:58;99894.47;;;5.17;100.00
28683;BME280;15862;43.062;25.626;2022-12-17T03:44:42;99887.44;;;5.21;100.00
28683;BME280;15862;43.062;25.626;2022-12-17T03:47:26;99898.03;;;5.30;100.00
28683;BME280;15862;43.062;25.626;2022-12-17T03:50:10;99892.13;;;5.13;100.00
28683;BME280;15862;43.062;25.626;2022-12-17T03:52:55;99885.25;;;4.98;100.00
28683;BME280;15862;43.062;25.626;2022-12-17T03:55:38;99876.09;;;4.94;100.00
28683;BME280;15862;43.062;25.626;2022-12-17T03:58:22;99874.59;;;4.73;100.00
28683;BME280;15862;43.062;25.626;2022-12-17T04:01:06;99877.16;;;4.73;100.00
28683;BME280;15862;43.062;25.626;2022-12-17T04:03:50;99872.44;;;4.65;100.00
28683;BME280;15862;43.062;25.626;2022-12-17T04:06:34;99863.88;;;4.66;100.00
28683;BME280;15862;43.062;25.626;2022-12-17T04:09:18;99860.53;;;4.64;100.00
28683;BME280;15862;43.062;25.626;2022-12-17T04:12:02;99853.28;;;4.57;100.00
28683;BME280;15862;43.062;25.626;2022-12-17T04:14:46;99861.66;;;4.59;100.00
28683;BME280;15862;43.062;25.626;2022-12-17T04:17:30;99853.72;;;4.65;100.00
28683;BME280;15862;43.062;25.626;2022-12-17T04:20:14;99838.16;;;4.53;100.00
28683;BME280;15862;43.062;25.626;2022-12-17T04:22:58;99826.88;;;4.40;100.00
28683;BME280;15862;43.062;25.626;2022-12-17T04:25:42;99824.38;;;4.38;100.00
28683;BME280;15862;43.062;25.626;2022-12-17T04:28:26;99841.25;;;4.25;100.00
28683;BME280;15862;43.062;25.626;2022-12-17T04:31:10;99832.13;;;4.20;100.00
28683;BME280;15862;43.062;25.626;2022-12-17T04:33:54;99833.41;;;4.11;100.00
28683;BME280;15862;43.062;25.626;2022-12-17T04:36:39;99824.25;;;4.24;100.00
28683;BME280;15862;43.062;25.626;2022-12-17T04:39:23;99808.59;;;4.30;100.00
28683;BME280;15862;43.062;25.626;2022-12-17T04:42:07;99815.97;;;4.36;100.00
28683;BME280;15862;43.062;25.626;2022-12-17T04:44:51;99802.25;;;4.54;100.00
28683;BME280;15862;43.062;25.626;2022-12-17T04:47:35;99789.94;;;4.45;100.00
28683;BME280;15862;43.062;25.626;2022-12-17T04:50:19;99781.25;;;4.32;100.00
28683;BME280;15862;43.062;25.626;2022-12-17T04:53:05;99771.03;;;4.15;100.00
28683;BME280;15862;43.062;25.626;2022-12-17T04:55:50;99774.41;;;4.16;100.00
28683;BME280;15862;43.062;25.626;2022-12-17T04:58:34;99766.97;;;4.28;100.00
28683;BME280;15862;43.062;25.626;2022-12-17T05:01:18;99769.94;;;4.36;100.00
28683;BME280;15862;43.062;25.626;2022-12-17T05:04:02;99760.66;;;4.35;100.00
28683;BME280;15862;43.062;25.626;2022-12-17T05:06:46;99762.28;;;4.36;100.00
28683;BME280;15862;43.062;25.626;2022-12-17T05:09:30;99762.28;;;4.36;100.00
28683;BME280;15862;43.062;25.626;2022-12-17T05:12:14;99767.38;;;4.36;100.00
28683;BME280;15862;43.062;25.626;2022-12-17T05:14:58;99758.00;;;4.37;100.00
28683;BME280;15862;43.062;25.626;2022-12-17T05:17:42;99759.00;;;4.34;100.00
28683;BME280;15862;43.062;25.626;2022-12-17T05:20:26;99737.81;;;4.15;100.00
28683;BME280;15862;43.062;25.626;2022-12-17T05:23:10;99759.59;;;4.22;100.00
28683;BME280;15862;43.062;25.626;2022-12-17T05:28:48;99769.38;;;4.14;100.00
28683;BME280;15862;43.062;25.626;2022-12-17T05:31:32;99784.88;;;4.11;100.00
28683;BME280;15862;43.062;25.626;2022-12-17T05:34:16;99778.25;;;4.07;100.00
28683;BME280;15862;43.062;25.626;2022-12-17T05:37:00;99766.22;;;4.09;100.00
28683;BME280;15862;43.062;25.626;2022-12-17T05:39:44;99764.56;;;4.25;100.00
28683;BME280;15862;43.062;25.626;2022-12-17T05:42:28;99754.19;;;4.28;100.00
28683;BME280;15862;43.062;25.626;2022-12-17T05:45:12;99761.03;;;4.11;100.00
28683;BME280;15862;43.062;25.626;2022-12-17T05:47:57;99746.53;;;4.11;100.00
28683;BME280;15862;43.062;25.626;2022-12-17T05:50:41;99757.06;;;4.05;100.00
28683;BME280;15862;43.062;25.626;2022-12-17T05:53:25;99753.75;;;4.03;100.00
28683;BME280;15862;43.062;25.626;2022-12-17T05:56:09;99753.91;;;4.00;100.00
28683;BME280;15862;43.062;25.626;2022-12-17T05:58:53;99776.06;;;4.00;100.00
28683;BME280;15862;43.062;25.626;2022-12-17T06:01:37;99782.75;;;4.02;100.00
28683;BME280;15862;43.062;25.626;2022-12-17T06:04:21;99796.13;;;4.07;100.00
28683;BME280;15862;43.062;25.626;2022-12-17T06:07:05;99797.03;;;4.23;100.00
28683;BME280;15862;43.062;25.626;2022-12-17T06:09:49;99764.56;;;4.08;100.00
28683;BME280;15862;43.062;25.626;2022-12-17T06:12:32;99802.81;;;4.27;100.00
28683;BME280;15862;43.062;25.626;2022-12-17T06:15:16;99804.38;;;4.29;100.00
28683;BME280;15862;43.062;25.626;2022-12-17T06:18:00;99803.94;;;4.38;100.00
28683;BME280;15862;43.062;25.626;2022-12-17T06:20:45;99806.34;;;4.41;100.00
28683;BME280;15862;43.062;25.626;2022-12-17T06:23:29;99811.00;;;4.50;100.00
28683;BME280;15862;43.062;25.626;2022-12-17T06:26:13;99803.91;;;4.55;100.00
28683;BME280;15862;43.062;25.626;2022-12-17T06:28:57;99813.50;;;4.67;100.00
28683;BME280;15862;43.062;25.626;2022-12-17T06:31:52;99816.03;;;4.68;100.00
28683;BME280;15862;43.062;25.626;2022-12-17T06:34:36;99812.25;;;4.75;100.00
28683;BME280;15862;43.062;25.626;2022-12-17T06:37:19;99816.72;;;4.87;100.00
28683;BME280;15862;43.062;25.626;2022-12-17T06:40:04;99813.75;;;4.95;100.00
28683;BME280;15862;43.062;25.626;2022-12-17T06:42:55;99818.38;;;5.04;100.00
28683;BME280;15862;43.062;25.626;2022-12-17T06:45:39;99822.34;;;5.25;100.00
28683;BME280;15862;43.062;25.626;2022-12-17T06:48:24;99821.06;;;5.48;100.00
28683;BME280;15862;43.062;25.626;2022-12-17T06:51:07;99831.22;;;5.81;100.00
28683;BME280;15862;43.062;25.626;2022-12-17T06:53:51;99828.44;;;5.99;100.00
28683;BME280;15862;43.062;25.626;2022-12-17T06:56:35;99819.78;;;6.31;100.00
28683;BME280;15862;43.062;25.626;2022-12-17T06:59:19;99787.16;;;6.47;100.00
28683;BME280;15862;43.062;25.626;2022-12-17T07:02:03;99801.75;;;6.88;100.00
28683;BME280;15862;43.062;25.626;2022-12-17T07:04:47;99759.28;;;7.10;100.00
28683;BME280;15862;43.062;25.626;2022-12-17T07:07:31;99784.63;;;7.43;100.00
28683;BME280;15862;43.062;25.626;2022-12-17T07:10:15;99778.84;;;7.92;100.00
28683;BME280;15862;43.062;25.626;2022-12-17T07:13:04;99755.03;;;8.27;100.00
28683;BME280;15862;43.062;25.626;2022-12-17T07:15:48;99785.88;;;9.73;100.00
28683;BME280;15862;43.062;25.626;2022-12-17T07:18:33;99785.53;;;12.18;100.00
28683;BME280;15862;43.062;25.626;2022-12-17T07:21:17;99792.69;;;14.12;100.00
28683;BME280;15862;43.062;25.626;2022-12-17T07:24:01;99727.00;;;15.55;100.00
28683;BME280;15862;43.062;25.626;2022-12-17T07:26:45;99724.50;;;16.49;100.00
28683;BME280;15862;43.062;25.626;2022-12-17T07:29:29;99727.38;;;17.04;100.00
28683;BME280;15862;43.062;25.626;2022-12-17T07:32:13;99723.16;;;17.61;100.00
28683;BME280;15862;43.062;25.626;2022-12-17T07:34:57;99718.97;;;17.91;100.00
28683;BME280;15862;43.062;25.626;2022-12-17T07:37:41;99706.88;;;17.98;100.00
28683;BME280;15862;43.062;25.626;2022-12-17T07:40:25;99705.56;;;17.94;100.00
28683;BME280;15862;43.062;25.626;2022-12-17T07:43:12;99713.06;;;17.81;100.00
28683;BME280;15862;43.062;25.626;2022-12-17T07:45:56;99713.56;;;18.17;100.00
28683;BME280;15862;43.062;25.626;2022-12-17T07:48:40;99717.00;;;18.25;100.00
28683;BME280;15862;43.062;25.626;2022-12-17T07:51:24;99709.91;;;18.49;100.00
28683;BME280;15862;43.062;25.626;2022-12-17T07:54:08;99707.94;;;19.06;98.87
28683;BME280;15862;43.062;25.626;2022-12-17T07:56:52;99711.53;;;19.65;93.64
28683;BME280;15862;43.062;25.626;2022-12-17T07:59:36;99715.91;;;20.17;88.00
28683;BME280;15862;43.062;25.626;2022-12-17T08:02:20;99726.00;;;20.43;85.98
28683;BME280;15862;43.062;25.626;2022-12-17T08:05:04;99736.16;;;20.46;85.04
28683;BME280;15862;43.062;25.626;2022-12-17T08:07:48;99734.28;;;20.69;83.72
28683;BME280;15862;43.062;25.626;2022-12-17T08:10:32;99740.59;;;20.60;84.46
28683;BME280;15862;43.062;25.626;2022-12-17T08:13:16;99754.63;;;20.52;84.65
28683;BME280;15862;43.062;25.626;2022-12-17T08:16:00;99729.97;;;20.02;87.11
28683;BME280;15862;43.062;25.626;2022-12-17T08:18:44;99761.34;;;20.18;87.31
28683;BME280;15862;43.062;25.626;2022-12-17T08:21:28;99741.84;;;19.98;88.57
28683;BME280;15862;43.062;25.626;2022-12-17T08:24:12;99748.25;;;19.65;90.96
28683;BME280;15862;43.062;25.626;2022-12-17T08:26:56;99747.25;;;19.66;91.73
28683;BME280;15862;43.062;25.626;2022-12-17T08:29:40;99751.47;;;19.75;91.78
28683;BME280;15862;43.062;25.626;2022-12-17T08:32:24;99734.97;;;19.89;90.17
28683;BME280;15862;43.062;25.626;2022-12-17T08:35:08;99785.13;;;19.94;91.03
28683;BME280;15862;43.062;25.626;2022-12-17T08:37:52;99826.91;;;19.88;92.62
28683;BME280;15862;43.062;25.626;2022-12-17T08:40:36;99838.19;;;20.04;89.94
28683;BME280;15862;43.062;25.626;2022-12-17T08:43:20;99857.94;;;20.37;87.02
28683;BME280;15862;43.062;25.626;2022-12-17T08:46:04;99891.34;;;19.98;77.70
28683;BME280;15862;43.062;25.626;2022-12-17T08:48:48;99939.50;;;17.82;73.22
28683;BME280;15862;43.062;25.626;2022-12-17T08:51:32;99992.13;;;14.76;77.42
28683;BME280;15862;43.062;25.626;2022-12-17T08:54:20;100042.00;;;13.43;85.47
28683;BME280;15862;43.062;25.626;2022-12-17T08:57:04;100082.81;;;12.68;88.17
28683;BME280;15862;43.062;25.626;2022-12-17T08:59:48;100105.63;;;12.10;86.83
28683;BME280;15862;43.062;25.626;2022-12-17T09:02:32;100140.28;;;11.74;88.93
28683;BME280;15862;43.062;25.626;2022-12-17T09:05:16;100159.38;;;10.55;96.05
28683;BME280;15862;43.062;25.626;2022-12-17T09:08:02;100174.53;;;9.34;100.00
28683;BME280;15862;43.062;25.626;2022-12-17T09:10:46;100208.50;;;8.60;100.00
28683;BME280;15862;43.062;25.626;2022-12-17T09:13:30;100199.69;;;8.07;100.00
28683;BME280;15862;43.062;25.626;2022-12-17T09:16:14;100182.25;;;7.68;100.00
28683;BME280;15862;43.062;25.626;2022-12-17T09:19:03;100210.38;;;7.71;100.00
28683;BME280;15862;43.062;25.626;2022-12-17T09:21:47;100199.34;;;8.13;100.00
28683;BME280;15862;43.062;25.626;2022-12-17T09:24:31;100199.91;;;9.66;100.00
28683;BME280;15862;43.062;25.626;2022-12-17T09:27:15;100184.97;;;9.32;100.00
28683;BME280;15862;43.062;25.626;2022-12-17T09:29:59;100184.97;;;9.45;100.00
28683;BME280;15862;43.062;25.626;2022-12-17T09:32:43;100189.53;;;9.15;100.00
28683;BME280;15862;43.062;25.626;2022-12-17T09:35:27;100200.78;;;9.53;100.00
28683;BME280;15862;43.062;25.626;2022-12-17T09:38:16;100189.69;;;9.65;100.00
28683;BME280;15862;43.062;25.626;2022-12-17T09:41:24;100170.69;;;9.53;100.00
28683;BME280;15862;43.062;25.626;2022-12-17T09:44:26;100197.72;;;9.60;100.00
28683;BME280;15862;43.062;25.626;2022-12-17T09:50:20;100179.00;;;14.42;79.97
28683;BME280;15862;43.062;25.626;2022-12-17T09:53:36;100176.00;;;16.55;65.21
28683;BME280;15862;43.062;25.626;2022-12-17T09:56:20;100144.03;;;18.27;54.80
28683;BME280;15862;43.062;25.626;2022-12-17T09:59:10;100134.94;;;19.29;49.57
28683;BME280;15862;43.062;25.626;2022-12-17T10:02:02;100121.50;;;19.56;48.80
28683;BME280;15862;43.062;25.626;2022-12-17T10:04:46;100123.41;;;20.80;45.42
28683;BME280;15862;43.062;25.626;2022-12-17T10:07:34;100123.84;;;21.81;42.80
28683;BME280;15862;43.062;25.626;2022-12-17T10:10:24;100121.63;;;21.48;42.58
28683;BME280;15862;43.062;25.626;2022-12-17T10:13:14;100119.03;;;21.70;41.81
28683;BME280;15862;43.062;25.626;2022-12-17T10:15:59;100108.78;;;21.08;42.36
28683;BME280;15862;43.062;25.626;2022-12-17T10:18:44;100094.22;;;20.21;44.70
28683;BME280;15862;43.062;25.626;2022-12-17T10:21:28;100089.69;;;20.91;44.06
28683;BME280;15862;43.062;25.626;2022-12-17T10:24:12;100076.59;;;21.87;42.37
28683;BME280;15862;43.062;25.626;2022-12-17T10:26:56;100078.91;;;22.83;40.20
28683;BME280;15862;43.062;25.626;2022-12-17T10:29:42;100060.63;;;22.96;39.58
28683;BME280;15862;43.062;25.626;2022-12-17T10:32:27;100055.97;;;23.19;39.03
28683;BME280;15862;43.062;25.626;2022-12-17T10:35:39;100059.88;;;23.98;38.35
28683;BME280;15862;43.062;25.626;2022-12-17T10:38:26;100048.63;;;25.75;34.94
28683;BME280;15862;43.062;25.626;2022-12-17T10:41:29;100058.22;;;26.52;34.04
28683;BME280;15862;43.062;25.626;2022-12-17T10:44:32;100097.53;;;26.62;33.58
28683;BME280;15862;43.062;25.626;2022-12-17T10:47:18;100130.09;;;26.82;32.75
28683;BME280;15862;43.062;25.626;2022-12-17T10:50:23;100130.84;;;25.35;34.89
28683;BME280;15862;43.062;25.626;2022-12-17T10:53:22;100112.25;;;24.22;36.24
28683;BME280;15862;43.062;25.626;2022-12-17T10:56:15;100127.66;;;23.43;38.34
28683;BME280;15862;43.062;25.626;2022-12-17T10:59:34;100105.94;;;22.56;40.03
28683;BME280;15862;43.062;25.626;2022-12-17T11:02:26;100128.72;;;22.78;40.94
28683;BME280;15862;43.062;25.626;2022-12-17T11:05:14;100102.84;;;23.38;39.85
28683;BME280;15862;43.062;25.626;2022-12-17T11:07:59;100115.41;;;22.65;41.06
28683;BME280;15862;43.062;25.626;2022-12-17T11:10:45;100097.94;;;22.64;41.48
28683;BME280;15862;43.062;25.626;2022-12-17T11:13:30;100078.84;;;21.76;43.15
28683;BME280;15862;43.062;25.626;2022-12-17T11:16:22;100090.75;;;21.27;44.42
28683;BME280;15862;43.062;25.626;2022-12-17T11:21:53;100125.81;;;21.42;45.09
28683;BME280;15862;43.062;25.626;2022-12-17T11:27:32;100173.75;;;21.74;44.81
28683;BME280;15862;43.062;25.626;2022-12-17T11:30:19;100175.44;;;21.67;45.39
28683;BME280;15862;43.062;25.626;2022-12-17T11:33:39;100168.69;;;22.96;42.82
28683;BME280;15862;43.062;25.626;2022-12-17T11:36:34;100128.81;;;23.41;41.24
28683;BME280;15862;43.062;25.626;2022-12-17T11:39:42;100137.19;;;22.74;42.89
28683;BME280;15862;43.062;25.626;2022-12-17T11:42:33;100126.09;;;22.78;42.96
28683;BME280;15862;43.062;25.626;2022-12-17T11:51:11;100112.53;;;24.74;39.30
28683;BME280;15862;43.062;25.626;2022-12-17T11:57:00;100099.13;;;26.76;35.67
28683;BME280;15862;43.062;25.626;2022-12-17T12:00:00;100102.78;;;25.73;36.98
28683;BME280;15862;43.062;25.626;2022-12-17T12:03:26;100093.59;;;22.14;42.82
28683;BME280;15862;43.062;25.626;2022-12-17T12:06:25;100062.84;;;19.73;48.27
28683;BME280;15862;43.062;25.626;2022-12-17T12:15:18;100060.94;;;16.31;74.86
28683;BME280;15862;43.062;25.626;2022-12-17T12:21:24;100080.97;;;16.31;75.36
28683;BME280;15862;43.062;25.626;2022-12-17T12:24:20;100094.19;;;16.10;78.53
28683;BME280;15862;43.062;25.626;2022-12-17T12:30:40;100092.88;;;15.88;80.11
28683;BME280;15862;43.062;25.626;2022-12-17T12:33:36;100100.34;;;15.54;83.34
28683;BME280;15862;43.062;25.626;2022-12-17T12:36:24;100104.59;;;15.27;85.66
28683;BME280;15862;43.062;25.626;2022-12-17T12:39:12;100113.25;;;15.28;86.50
28683;BME280;15862;43.062;25.626;2022-12-17T12:48:00;100111.53;;;14.98;91.54
28683;BME280;15862;43.062;25.626;2022-12-17T12:53:39;100152.72;;;14.35;100.00
28683;BME280;15862;43.062;25.626;2022-12-17T12:56:33;100199.91;;;14.10;100.00
28683;BME280;15862;43.062;25.626;2022-12-17T12:59:26;100177.69;;;13.66;100.00
28683;BME280;15862;43.062;25.626;2022-12-17T13:05:27;100147.63;;;12.79;100.00
28683;BME280;15862;43.062;25.626;2022-12-17T13:08:01;100090.28;;;12.50;100.00
28683;BME280;15862;43.062;25.626;2022-12-17T13:10:29;100097.25;;;12.39;100.00
28683;BME280;15862;43.062;25.626;2022-12-17T13:12:56;100121.84;;;12.01;100.00
28683;BME280;15862;43.062;25.626;2022-12-17T13:15:31;100119.16;;;11.91;100.00
28683;BME280;15862;43.062;25.626;2022-12-17T13:21:01;100106.59;;;12.73;100.00
28683;BME280;15862;43.062;25.626;2022-12-17T13:23:32;100103.06;;;12.74;100.00
28683;BME280;15862;43.062;25.626;2022-12-17T13:26:20;100105.22;;;12.69;100.00
28683;BME280;15862;43.062;25.626;2022-12-17T13:28:59;100102.41;;;12.72;100.00
28683;BME280;15862;43.062;25.626;2022-12-17T13:31:30;100113.22;;;12.88;100.00
28683;BME280;15862;43.062;25.626;2022-12-17T13:36:44;100103.72;;;13.08;100.00
28683;BME280;15862;43.062;25.626;2022-12-17T13:41:53;100078.34;;;13.12;100.00
28683;BME280;15862;43.062;25.626;2022-12-17T13:44:23;100073.94;;;13.03;100.00
28683;BME280;15862;43.062;25.626;2022-12-17T13:46:50;100062.72;;;13.02;100.00
28683;BME280;15862;43.062;25.626;2022-12-17T13:49:37;100080.34;;;12.88;100.00
28683;BME280;15862;43.062;25.626;2022-12-17T13:52:16;100083.50;;;12.81;100.00
28683;BME280;15862;43.062;25.626;2022-12-17T13:54:41;100086.84;;;12.61;100.00
28683;BME280;15862;43.062;25.626;2022-12-17T13:57:14;100084.66;;;12.45;100.00
28683;BME280;15862;43.062;25.626;2022-12-17T13:59:47;100078.41;;;12.37;100.00
28683;BME280;15862;43.062;25.626;2022-12-17T14:04:53;100100.78;;;12.05;100.00
28683;BME280;15862;43.062;25.626;2022-12-17T14:07:19;100108.56;;;12.05;100.00
28683;BME280;15862;43.062;25.626;2022-12-17T14:09:45;100129.50;;;11.91;100.00
28683;BME280;15862;43.062;25.626;2022-12-17T14:12:13;100134.91;;;11.88;100.00
28683;BME280;15862;43.062;25.626;2022-12-17T14:17:27;100159.00;;;11.89;100.00
28683;BME280;15862;43.062;25.626;2022-12-17T14:19:57;100158.53;;;11.84;100.00
28683;BME280;15862;43.062;25.626;2022-12-17T14:22:31;100155.13;;;11.94;100.00
28683;BME280;15862;43.062;25.626;2022-12-17T14:24:59;100154.19;;;11.84;100.00
28683;BME280;15862;43.062;25.626;2022-12-17T14:27:29;100142.28;;;11.71;100.00
28683;BME280;15862;43.062;25.626;2022-12-17T14:29:55;100164.25;;;11.65;100.00
28683;BME280;15862;43.062;25.626;2022-12-17T14:32:24;100166.22;;;11.62;100.00
28683;BME280;15862;43.062;25.626;2022-12-17T14:34:50;100187.19;;;11.46;100.00
28683;BME280;15862;43.062;25.626;2022-12-17T14:37:21;100182.56;;;11.39;100.00
28683;BME280;15862;43.062;25.626;2022-12-17T14:39:47;100176.03;;;11.23;100.00
28683;BME280;15862;43.062;25.626;2022-12-17T14:42:19;100195.41;;;11.41;100.00
28683;BME280;15862;43.062;25.626;2022-12-17T14:45:20;100190.81;;;11.21;100.00
28683;BME280;15862;43.062;25.626;2022-12-17T14:47:54;100203.59;;;11.11;100.00
28683;BME280;15862;43.062;25.626;2022-12-17T14:52:50;100218.31;;;10.98;100.00
28683;BME280;15862;43.062;25.626;2022-12-17T14:58:13;100216.06;;;10.81;100.00
28683;BME280;15862;43.062;25.626;2022-12-17T15:00:42;100240.69;;;10.74;100.00
28683;BME280;15862;43.062;25.626;2022-12-17T15:03:10;100261.78;;;10.81;100.00
28683;BME280;15862;43.062;25.626;2022-12-17T15:05:39;100265.81;;;10.60;100.00
28683;BME280;15862;43.062;25.626;2022-12-17T15:08:05;100288.75;;;10.52;100.00
28683;BME280;15862;43.062;25.626;2022-12-17T15:10:30;100282.09;;;10.36;100.00
28683;BME280;15862;43.062;25.626;2022-12-17T15:12:56;100307.63;;;10.40;100.00
28683;BME280;15862;43.062;25.626;2022-12-17T15:15:21;100290.56;;;10.25;100.00
28683;BME280;15862;43.062;25.626;2022-12-17T15:17:47;100322.28;;;10.27;100.00
28683;BME280;15862;43.062;25.626;2022-12-17T15:20:19;100321.38;;;10.28;100.00
28683;BME280;15862;43.062;25.626;2022-12-17T15:22:46;100311.44;;;10.22;100.00